Time;durP1;ratioP1;P1;durP2;ratioP2;P2;SDS_P1;SDS_P2;PMS_P1;PMS_P2;Temp;Humidity;BMP_temperature;BMP_pressure;BME280_temperature;BME280_humidity;BME280_pressure;Samples;Min_cycle;Max_cycle;Signal;HPM_P1;HPM_P2
2021/06/07 00:02:29;;;;;;;3.80;2.40;;;;;;;16.64;65.32;102056.59;4908694;29;20044;-78
2021/06/07 00:04:54;;;;;;;3.83;2.45;;;;;;;16.60;66.08;102085.78;4908957;29;20048;-78
2021/06/07 00:07:21;;;;;;;6.55;2.70;;;;;;;16.39;66.86;102072.56;4896789;29;20089;-78
2021/06/07 00:09:47;;;;;;;4.60;2.80;;;;;;;16.24;67.33;102065.31;4898745;29;20079;-78
2021/06/07 00:12:17;;;;;;;4.45;2.70;;;;;;;16.36;67.49;102087.66;4906193;29;20041;-77
2021/06/07 00:14:43;;;;;;;4.80;2.88;;;;;;;16.24;67.66;102073.19;4894075;29;20049;-79
2021/06/07 00:17:09;;;;;;;4.03;2.70;;;;;;;16.20;67.70;102067.19;4896795;29;20069;-80
2021/06/07 00:19:38;;;;;;;4.35;2.50;;;;;;;16.35;67.94;102084.16;4914736;29;20061;-79
2021/06/07 00:22:04;;;;;;;4.63;2.70;;;;;;;16.35;67.82;102080.69;4904218;29;20104;-79
2021/06/07 00:24:36;;;;;;;5.10;2.55;;;;;;;16.31;67.97;102087.84;4903795;29;20039;-79
2021/06/07 00:27:03;;;;;;;4.35;2.80;;;;;;;16.14;68.42;102065.66;4906503;29;20069;-79
2021/06/07 00:29:28;;;;;;;4.85;3.35;;;;;;;16.25;67.73;102082.81;4902170;29;20516;-77
2021/06/07 00:31:55;;;;;;;5.22;3.97;;;;;;;16.14;67.73;102080.63;4912798;29;20060;-78
2021/06/07 00:34:23;;;;;;;5.95;3.10;;;;;;;16.03;68.20;102075.75;4915962;29;20048;-77
2021/06/07 00:36:49;;;;;;;5.05;3.05;;;;;;;16.10;68.44;102089.53;4921405;29;20104;-76
2021/06/07 00:39:16;;;;;;;6.05;3.72;;;;;;;16.02;68.30;102066.16;4917584;29;20048;-76
2021/06/07 00:41:47;;;;;;;4.85;3.30;;;;;;;16.08;68.41;102080.84;4894574;29;20049;-78
2021/06/07 00:44:22;;;;;;;6.03;3.75;;;;;;;15.98;68.54;102072.47;4892439;29;20093;-78
2021/06/07 00:46:49;;;;;;;4.53;3.53;;;;;;;16.08;68.36;102075.59;4903484;29;20494;-79
2021/06/07 00:49:17;;;;;;;5.72;3.60;;;;;;;16.12;68.25;102075.38;4881283;29;20041;-77
2021/06/07 00:51:45;;;;;;;5.15;3.90;;;;;;;16.05;68.66;102079.22;4902592;29;20088;-79
2021/06/07 00:54:14;;;;;;;5.18;3.35;;;;;;;16.00;68.67;102084.66;4903649;29;20140;-78
2021/06/07 00:56:40;;;;;;;6.97;3.85;;;;;;;15.75;68.50;102039.94;4875748;29;20089;-78
2021/06/07 00:59:06;;;;;;;6.60;3.92;;;;;;;15.97;68.69;102074.22;4905526;29;20049;-77
2021/06/07 01:01:31;;;;;;;5.82;3.75;;;;;;;15.37;68.80;101974.69;4872577;29;20045;-79
2021/06/07 01:04:01;;;;;;;5.38;3.85;;;;;;;16.03;68.69;102081.03;4902940;29;20558;-80
2021/06/07 01:06:28;;;;;;;6.18;3.45;;;;;;;16.02;68.80;102076.69;4911537;29;20032;-79
2021/06/07 01:08:54;;;;;;;5.13;3.40;;;;;;;16.01;68.91;102080.22;4908399;29;20040;-79
2021/06/07 01:11:21;;;;;;;4.68;3.78;;;;;;;15.99;68.57;102061.84;4911479;29;20066;-79
2021/06/07 01:13:52;;;;;;;6.38;3.70;;;;;;;15.93;68.54;102064.72;4892250;29;20033;-79
2021/06/07 01:16:21;;;;;;;6.15;3.47;;;;;;;15.75;68.49;102034.66;4906849;29;20108;-79
2021/06/07 01:18:50;;;;;;;5.70;3.17;;;;;;;16.02;68.21;102071.41;4907517;29;20111;-79
2021/06/07 01:21:22;;;;;;;7.80;4.05;;;;;;;15.93;68.46;102063.84;4890049;29;20052;-79
2021/06/07 01:23:55;;;;;;;6.80;4.05;;;;;;;15.93;68.48;102063.84;4897138;29;20108;-79
2021/06/07 01:26:23;;;;;;;4.47;3.30;;;;;;;15.80;68.65;102056.41;4908751;29;20063;-79
2021/06/07 01:28:49;;;;;;;7.13;3.90;;;;;;;15.56;68.83;102023.13;4905864;29;20060;-78
2021/06/07 01:31:21;;;;;;;4.68;3.70;;;;;;;15.65;69.06;102060.50;4894393;29;20512;-78
2021/06/07 01:33:51;;;;;;;5.25;3.30;;;;;;;15.64;69.16;102071.94;4898212;29;20053;-76
2021/06/07 01:36:17;;;;;;;4.95;2.63;;;;;;;15.53;69.38;102064.44;4894938;29;20047;-78
2021/06/07 01:38:43;;;;;;;5.30;2.60;;;;;;;15.50;69.61;102056.66;4913034;29;20096;-77
2021/06/07 01:41:13;;;;;;;6.38;2.88;;;;;;;15.46;69.53;102065.56;4916914;29;20035;-77
2021/06/07 01:43:46;;;;;;;4.95;2.97;;;;;;;15.39;69.51;102060.59;4937962;29;20056;-78
2021/06/07 01:46:12;;;;;;;4.40;2.50;;;;;;;15.34;69.59;102043.22;4930805;29;20043;-78
2021/06/07 01:48:37;;;;;;;6.53;3.08;;;;;;;15.39;69.68;102057.97;4915681;29;20040;-78
2021/06/07 01:51:06;;;;;;;3.97;2.35;;;;;;;15.37;69.76;102055.41;4901327;29;20513;-77
2021/06/07 01:53:32;;;;;;;4.90;2.75;;;;;;;15.35;69.68;102059.84;4911187;29;20185;-77
2021/06/07 01:56:01;;;;;;;5.78;2.45;;;;;;;15.28;69.74;102038.19;4899040;29;20044;-78
2021/06/07 01:58:28;;;;;;;4.82;2.55;;;;;;;15.28;69.30;102050.47;4907567;29;20055;-78
2021/06/07 02:01:16;;;;;;;5.75;2.90;;;;;;;15.28;69.19;102050.47;4911879;29;20100;-78
2021/06/07 02:03:41;;;;;;;5.15;2.83;;;;;;;15.25;69.00;102048.81;4910013;29;20036;-77
2021/06/07 02:06:09;;;;;;;7.65;3.30;;;;;;;15.20;69.11;102056.84;4915040;29;20042;-78
2021/06/07 02:08:35;;;;;;;5.35;3.35;;;;;;;15.21;69.37;102058.56;4907042;29;20438;-78
2021/06/07 02:11:14;;;;;;;7.55;3.25;;;;;;;15.16;69.43;102042.13;4909523;29;20556;-77
2021/06/07 02:13:41;;;;;;;6.72;3.33;;;;;;;15.01;69.61;102037.38;4909857;29;20073;-78
2021/06/07 02:16:30;;;;;;;9.05;3.47;;;;;;;15.06;69.95;102043.34;4906308;29;20120;-77
2021/06/07 02:18:56;;;;;;;8.35;3.00;;;;;;;15.04;70.23;102051.28;4904626;29;20573;-77
2021/06/07 02:21:25;;;;;;;7.53;3.42;;;;;;;15.02;70.44;102050.47;4898798;29;20056;-78
2021/06/07 02:23:51;;;;;;;6.88;3.22;;;;;;;14.97;70.81;102048.94;4907150;29;20036;-78
2021/06/07 02:26:18;;;;;;;6.88;3.80;;;;;;;14.93;71.20;102055.19;4913021;29;20517;-78
2021/06/07 02:29:09;;;;;;;8.25;3.95;;;;;;;14.81;71.60;102056.50;4914135;29;20481;-77
2021/06/07 02:31:35;;;;;;;6.18;3.10;;;;;;;14.63;72.32;102058.78;4899482;29;20040;-77
2021/06/07 02:34:05;;;;;;;6.93;3.05;;;;;;;14.56;72.67;102057.28;4916520;29;20056;-77
2021/06/07 02:36:34;;;;;;;5.78;3.15;;;;;;;14.68;72.34;102061.31;4901205;29;20063;-78
2021/06/07 02:39:00;;;;;;;9.98;3.40;;;;;;;14.61;72.72;102063.25;4900770;29;20036;-77
2021/06/07 02:41:26;;;;;;;7.50;3.78;;;;;;;14.58;72.83;102066.81;4896860;29;20112;-77
2021/06/07 02:43:53;;;;;;;8.27;3.67;;;;;;;14.53;73.23;102063.50;4897055;29;20024;-78
2021/06/07 02:46:19;;;;;;;8.05;4.10;;;;;;;14.49;73.23;102061.88;4898696;29;20557;-77
2021/06/07 02:48:45;;;;;;;9.35;4.13;;;;;;;14.45;73.67;102069.91;4898126;29;20048;-77
2021/06/07 02:51:11;;;;;;;7.57;4.18;;;;;;;14.44;73.86;102062.94;4883395;29;20493;-78
2021/06/07 02:53:37;;;;;;;7.82;4.32;;;;;;;14.36;74.55;102057.94;4903709;29;20028;-77
2021/06/07 02:56:03;;;;;;;10.48;4.85;;;;;;;14.25;74.87;102050.41;4890814;29;20136;-78
2021/06/07 02:58:28;;;;;;;9.50;5.28;;;;;;;14.22;75.49;102061.88;4890419;29;20104;-78
2021/06/07 03:01:03;;;;;;;10.63;5.00;;;;;;;14.17;75.41;102050.66;4904363;29;20036;-79
2021/06/07 03:03:29;;;;;;;10.35;5.35;;;;;;;14.23;75.99;102079.34;4907448;29;20372;-78
2021/06/07 03:05:55;;;;;;;11.23;5.32;;;;;;;14.19;75.74;102064.56;4900328;29;20112;-78
2021/06/07 03:08:24;;;;;;;10.73;5.45;;;;;;;14.19;75.70;102050.59;4899961;29;20035;-79
2021/06/07 03:10:53;;;;;;;8.95;5.32;;;;;;;14.30;75.50;102071.28;4918651;29;20036;-78
2021/06/07 03:13:19;;;;;;;10.10;5.70;;;;;;;14.32;75.76;102074.69;4899861;29;20491;-77
2021/06/07 03:15:45;;;;;;;8.25;5.20;;;;;;;14.23;75.60;102054.84;4899558;29;20568;-77
2021/06/07 03:18:12;;;;;;;11.20;5.93;;;;;;;14.29;75.89;102077.44;4901172;29;20164;-77
2021/06/07 03:20:37;;;;;;;14.50;6.15;;;;;;;14.25;75.88;102064.38;4906909;29;20073;-78
2021/06/07 03:23:07;;;;;;;10.13;5.88;;;;;;;14.25;76.21;102071.41;4899777;29;20115;-79
2021/06/07 03:25:33;;;;;;;10.73;6.20;;;;;;;14.23;76.28;102067.97;4900634;29;20120;-78
2021/06/07 03:28:00;;;;;;;12.85;6.75;;;;;;;14.21;76.47;102068.03;4893089;29;20147;-77
2021/06/07 03:30:26;;;;;;;12.60;6.32;;;;;;;14.24;76.48;102069.69;4896851;29;20044;-78
2021/06/07 03:32:51;;;;;;;12.60;6.60;;;;;;;14.21;76.48;102065.41;4898704;29;20036;-79
2021/06/07 03:35:19;;;;;;;12.02;6.78;;;;;;;14.16;76.43;102050.69;4892449;29;20565;-78
2021/06/07 03:37:46;;;;;;;10.75;6.07;;;;;;;14.11;76.59;102055.22;4899192;29;20037;-79
2021/06/07 03:40:19;;;;;;;10.73;6.53;;;;;;;14.10;76.83;102067.50;4899914;29;20111;-78
2021/06/07 03:42:47;;;;;;;13.10;6.60;;;;;;;14.03;77.11;102066.81;4899541;29;20041;-78
2021/06/07 03:45:16;;;;;;;13.30;6.60;;;;;;;14.03;77.19;102063.34;4892830;29;20040;-77
2021/06/07 03:47:43;;;;;;;14.18;6.90;;;;;;;13.57;77.12;101985.13;4898068;29;20111;-78
2021/06/07 03:50:10;;;;;;;13.45;6.95;;;;;;;13.96;77.25;102057.41;4899248;29;20040;-78
2021/06/07 03:52:37;;;;;;;9.80;6.40;;;;;;;13.81;77.27;102039.53;4898575;29;20485;-78
2021/06/07 03:55:05;;;;;;;11.32;7.00;;;;;;;13.84;77.50;102056.03;4894919;29;20694;-77
2021/06/07 03:57:31;;;;;;;11.63;6.63;;;;;;;13.55;77.48;102002.66;4895668;29;20494;-77
2021/06/07 03:59:56;;;;;;;11.45;6.93;;;;;;;13.66;77.63;102032.94;4895889;29;20047;-77
2021/06/07 04:02:23;;;;;;;9.32;6.10;;;;;;;13.73;77.86;102050.25;4894912;29;20032;-77
2021/06/07 04:04:48;;;;;;;10.15;6.90;;;;;;;13.60;78.09;102040.09;4899622;29;20040;-78
2021/06/07 04:07:14;;;;;;;11.45;6.10;;;;;;;13.59;78.09;102048.03;4899282;29;20036;-78
2021/06/07 04:09:41;;;;;;;10.90;6.35;;;;;;;13.54;78.45;102052.56;4901797;29;20206;-77
2021/06/07 04:12:07;;;;;;;11.90;6.45;;;;;;;13.35;78.30;102011.06;4888381;29;20112;-79
2021/06/07 04:14:32;;;;;;;14.57;6.22;;;;;;;13.37;78.05;102013.66;4893770;29;20123;-79
2021/06/07 04:16:58;;;;;;;11.10;6.47;;;;;;;13.60;77.70;102042.72;4899119;29;20464;-78
2021/06/07 04:19:24;;;;;;;10.25;6.55;;;;;;;13.66;77.68;102048.69;4894834;29;20043;-78
2021/06/07 04:21:49;;;;;;;12.48;5.82;;;;;;;13.68;77.36;102046.91;4887953;29;20040;-78
2021/06/07 04:24:15;;;;;;;10.65;6.03;;;;;;;13.73;76.95;102045.00;4893907;29;20055;-77
2021/06/07 04:26:40;;;;;;;8.90;5.70;;;;;;;13.78;76.50;102037.84;4896347;29;20036;-78
2021/06/07 04:29:06;;;;;;;11.45;6.03;;;;;;;13.71;76.57;102026.66;4895002;29;20041;-78
2021/06/07 04:31:32;;;;;;;9.48;5.20;;;;;;;13.82;76.27;102038.59;4900676;29;20040;-78
2021/06/07 04:33:59;;;;;;;9.75;5.32;;;;;;;13.87;76.06;102049.84;4903583;29;20522;-78
2021/06/07 04:36:24;;;;;;;12.23;5.40;;;;;;;13.96;75.71;102046.91;4911605;29;20119;-78
2021/06/07 04:38:50;;;;;;;10.45;5.55;;;;;;;13.98;75.28;102053.00;4917270;29;20505;-78
2021/06/07 04:41:15;;;;;;;11.40;4.88;;;;;;;13.93;75.70;102055.75;4931813;29;20039;-78
2021/06/07 04:43:41;;;;;;;9.73;5.60;;;;;;;13.80;76.07;102040.44;4893161;29;20565;-78
2021/06/07 04:46:06;;;;;;;11.07;5.63;;;;;;;13.87;75.82;102055.94;4917317;29;20396;-78
2021/06/07 04:48:32;;;;;;;10.60;5.90;;;;;;;13.90;75.76;102047.97;4909497;29;20035;-78
2021/06/07 04:50:57;;;;;;;11.77;5.80;;;;;;;13.92;75.73;102058.44;4907787;29;20134;-78
2021/06/07 04:53:23;;;;;;;9.10;5.32;;;;;;;13.60;75.75;102010.41;4899649;29;20029;-79
2021/06/07 04:55:51;;;;;;;13.10;5.70;;;;;;;14.05;75.21;102061.56;4917566;29;20044;-78
2021/06/07 04:58:23;;;;;;;9.65;5.18;;;;;;;14.46;73.17;102050.63;4913127;29;20039;-78
2021/06/07 05:00:57;;;;;;;10.13;4.82;;;;;;;14.73;72.32;102057.63;4916584;29;20060;-79
2021/06/07 05:03:25;;;;;;;7.78;5.03;;;;;;;14.64;72.20;102072.81;4908965;29;20446;-78
2021/06/07 05:05:51;;;;;;;11.05;5.25;;;;;;;14.76;71.70;102047.88;4917428;29;20067;-78
2021/06/07 05:08:17;;;;;;;13.73;5.75;;;;;;;14.93;71.44;102060.47;4914424;29;20115;-79
2021/06/07 05:10:43;;;;;;;10.38;4.97;;;;;;;15.53;69.46;102056.53;4897669;29;20071;-77
2021/06/07 05:13:08;;;;;;;8.05;4.82;;;;;;;15.72;68.48;102063.75;4916015;29;20092;-78
2021/06/07 05:15:34;;;;;;;7.68;4.55;;;;;;;16.32;66.67;102065.84;4917730;29;20091;-78
2021/06/07 05:18:00;;;;;;;8.75;4.65;;;;;;;16.14;66.48;102059.53;4917003;29;20036;-77
2021/06/07 05:20:27;;;;;;;7.35;5.10;;;;;;;15.62;68.49;102068.50;4910412;29;20388;-77
2021/06/07 05:22:54;;;;;;;9.60;5.38;;;;;;;15.06;70.61;102061.75;4917297;29;20072;-77
2021/06/07 05:25:22;;;;;;;11.52;5.60;;;;;;;14.97;71.25;102060.31;4902011;29;20108;-75
2021/06/07 05:27:50;;;;;;;9.70;5.22;;;;;;;15.02;71.13;102068.88;4900321;29;20036;-75
2021/06/07 05:30:18;;;;;;;8.15;5.32;;;;;;;15.02;71.36;102068.88;4913547;29;20127;-76
2021/06/07 05:32:43;;;;;;;8.88;5.78;;;;;;;15.03;71.03;102070.59;4909659;29;20051;-79
2021/06/07 05:35:11;;;;;;;10.15;5.60;;;;;;;14.94;71.43;102076.19;4916814;29;20044;-78
2021/06/07 05:37:37;;;;;;;9.35;5.80;;;;;;;14.78;71.89;102067.97;4910299;29;20091;-78
2021/06/07 05:40:09;;;;;;;8.85;5.28;;;;;;;14.79;72.05;102071.47;4924955;29;20039;-78
2021/06/07 05:42:36;;;;;;;9.35;5.50;;;;;;;14.81;71.69;102046.00;4932237;29;20059;-79
2021/06/07 05:45:04;;;;;;;9.80;5.97;;;;;;;14.81;71.67;102053.88;4915927;29;20051;-79
2021/06/07 05:47:30;;;;;;;10.18;5.57;;;;;;;15.00;71.40;102068.09;4922512;29;20040;-79
2021/06/07 05:49:56;;;;;;;10.20;5.68;;;;;;;15.07;71.35;102068.72;4921799;29;20045;-78
2021/06/07 05:52:21;;;;;;;9.60;5.63;;;;;;;15.21;70.70;102076.16;4939058;29;20036;-77
2021/06/07 05:54:48;;;;;;;9.52;5.40;;;;;;;15.32;70.16;102068.72;4914461;29;20553;-79
2021/06/07 05:57:14;;;;;;;8.70;4.88;;;;;;;15.39;69.79;102060.59;4900312;29;20092;-78
2021/06/07 05:59:43;;;;;;;9.18;5.55;;;;;;;15.31;69.83;102074.03;4915352;29;20032;-78
2021/06/07 06:02:10;;;;;;;10.32;5.10;;;;;;;15.14;70.34;102079.91;4911292;29;20470;-79
2021/06/07 06:04:37;;;;;;;10.80;6.13;;;;;;;14.93;70.87;102063.09;4917217;29;20040;-79
2021/06/07 06:07:04;;;;;;;9.00;5.10;;;;;;;15.05;70.60;102074.06;4909728;29;20071;-78
2021/06/07 06:09:30;;;;;;;9.15;5.28;;;;;;;14.97;70.84;102088.38;4900425;29;20405;-78
2021/06/07 06:11:57;;;;;;;10.10;5.20;;;;;;;15.01;70.26;102095.25;4931347;29;20047;-79
2021/06/07 06:14:22;;;;;;;10.85;5.72;;;;;;;14.75;70.53;102030.44;4920314;29;20203;-79
2021/06/07 06:16:48;;;;;;;10.15;4.72;;;;;;;15.10;70.45;102084.41;4933161;29;20045;-79
2021/06/07 06:19:14;;;;;;;10.20;4.70;;;;;;;15.15;70.19;102090.38;4899009;29;20032;-78
2021/06/07 06:21:40;;;;;;;11.70;5.43;;;;;;;15.28;69.65;102090.81;4908602;29;20037;-77
2021/06/07 06:24:11;;;;;;;8.65;4.32;;;;;;;15.56;68.84;102092.41;4906866;29;20048;-78
2021/06/07 06:26:38;;;;;;;10.23;4.82;;;;;;;15.42;68.70;102084.19;4913169;29;20032;-79
2021/06/07 06:29:06;;;;;;;12.75;5.22;;;;;;;15.39;69.56;102106.19;4913522;29;20044;-78
2021/06/07 06:31:32;;;;;;;8.25;4.78;;;;;;;15.54;69.16;102107.41;4930822;29;20044;-77
2021/06/07 06:33:59;;;;;;;6.88;5.15;;;;;;;15.77;68.25;102108.31;4912049;29;20087;-78
2021/06/07 06:36:24;;;;;;;9.93;5.80;;;;;;;15.87;67.34;102080.78;4927537;29;20036;-78
2021/06/07 06:38:50;;;;;;;9.68;5.47;;;;;;;16.09;66.92;102090.47;4930697;29;20036;-79
2021/06/07 06:41:17;;;;;;;8.30;5.47;;;;;;;16.36;66.39;102106.13;4935740;29;20048;-77
2021/06/07 06:43:43;;;;;;;9.07;5.47;;;;;;;16.32;66.39;102105.38;4919653;29;20052;-78
2021/06/07 06:46:09;;;;;;;10.35;5.65;;;;;;;16.21;66.73;102118.09;4932417;29;20036;-77
2021/06/07 06:48:35;;;;;;;7.55;6.03;;;;;;;16.12;67.05;102114.91;4931862;29;20051;-78
2021/06/07 06:51:02;;;;;;;9.15;5.93;;;;;;;15.87;67.39;102117.63;4928106;29;20040;-79
2021/06/07 06:53:28;;;;;;;9.00;6.10;;;;;;;15.76;67.36;102065.34;4934525;29;20036;-78
2021/06/07 06:55:54;;;;;;;8.30;6.05;;;;;;;15.87;67.84;102117.63;4935040;29;20043;-78
2021/06/07 06:58:20;;;;;;;12.73;5.65;;;;;;;15.95;67.85;102114.69;4922369;29;20056;-78
2021/06/07 07:00:48;;;;;;;9.18;5.68;;;;;;;15.90;67.95;102116.66;4908323;29;20047;-79
2021/06/07 07:03:18;;;;;;;9.60;5.20;;;;;;;15.86;67.23;102071.16;4909027;29;20036;-80
2021/06/07 07:05:46;;;;;;;8.50;4.60;;;;;;;16.50;66.18;102116.94;4924208;29;20120;-79
2021/06/07 07:08:13;;;;;;;7.15;4.65;;;;;;;16.64;65.27;102113.75;4890168;29;20478;-81
2021/06/07 07:10:42;;;;;;;9.30;5.22;;;;;;;16.67;64.92;102113.59;4892429;29;20068;-79
2021/06/07 07:13:08;;;;;;;8.38;3.88;;;;;;;17.02;64.02;102116.59;4924653;29;20067;-81
2021/06/07 07:15:34;;;;;;;6.30;4.10;;;;;;;17.15;63.30;102123.97;4924799;29;20037;-82
2021/06/07 07:18:00;;;;;;;8.00;4.10;;;;;;;17.07;63.77;102138.34;4916160;29;20090;-82
2021/06/07 07:20:25;;;;;;;10.43;4.15;;;;;;;17.26;63.02;102114.66;4929195;29;20070;-82
2021/06/07 07:22:53;;;;;;;8.88;3.90;;;;;;;17.42;62.81;102120.13;4917245;29;20037;-81
2021/06/07 07:25:19;;;;;;;5.95;3.53;;;;;;;17.55;62.01;102116.94;4922592;29;20492;-79
2021/06/07 07:27:44;;;;;;;5.63;3.58;;;;;;;17.40;61.96;102113.19;4903785;29;20389;-82
2021/06/07 07:30:13;;;;;;;7.45;3.70;;;;;;;17.63;61.58;102116.59;4920127;29;20044;-80
2021/06/07 07:32:40;;;;;;;5.95;3.05;;;;;;;17.73;61.52;102116.09;4912208;29;20036;-82
2021/06/07 07:35:07;;;;;;;6.75;3.72;;;;;;;17.69;61.22;102084.63;4920372;29;20517;-81
2021/06/07 07:37:34;;;;;;;7.65;4.13;;;;;;;17.66;61.49;102104.09;4922663;29;20064;-78
2021/06/07 07:40:00;;;;;;;8.40;4.30;;;;;;;17.64;61.54;102091.88;4920282;29;20044;-81
2021/06/07 07:42:25;;;;;;;7.57;3.80;;;;;;;17.97;61.14;102122.97;4921048;29;20382;-78
2021/06/07 07:44:51;;;;;;;8.73;4.00;;;;;;;17.97;61.04;102122.97;4911381;29;20044;-80
2021/06/07 07:47:18;;;;;;;6.28;3.53;;;;;;;18.19;60.12;102130.78;4899278;29;20111;-80
2021/06/07 07:49:45;;;;;;;6.15;3.50;;;;;;;18.19;60.10;102125.50;4906035;29;20040;-78
2021/06/07 07:52:11;;;;;;;6.57;4.10;;;;;;;17.76;61.41;102121.25;4912113;29;20077;-85
2021/06/07 07:54:37;;;;;;;8.35;3.80;;;;;;;17.72;61.56;102109.13;4899390;29;20541;-83
2021/06/07 07:57:04;;;;;;;6.63;3.75;;;;;;;17.73;61.82;102120.53;4886410;29;20064;-84
2021/06/07 07:59:30;;;;;;;6.60;3.60;;;;;;;17.71;61.39;102112.69;4887749;29;20324;-84
2021/06/07 08:01:55;;;;;;;8.70;4.25;;;;;;;17.38;61.76;102086.00;4911703;29;20140;-83
2021/06/07 08:04:21;;;;;;;6.82;4.28;;;;;;;17.38;62.55;102128.25;4917746;29;20088;-83
2021/06/07 08:06:47;;;;;;;5.70;3.90;;;;;;;17.12;63.34;102133.75;4889354;29;20069;-83
2021/06/07 08:09:13;;;;;;;7.43;4.00;;;;;;;17.17;63.36;102138.81;4882328;29;20056;-83
2021/06/07 08:11:40;;;;;;;10.20;4.07;;;;;;;17.12;63.32;102139.03;4902888;29;20045;-83
2021/06/07 08:14:05;;;;;;;5.97;3.75;;;;;;;17.09;63.43;102127.75;4883780;29;20049;-84
2021/06/07 08:16:31;;;;;;;8.27;3.25;;;;;;;17.06;63.64;102127.88;4894041;29;20043;-84
2021/06/07 08:18:58;;;;;;;5.93;3.30;;;;;;;17.08;63.55;102132.16;4905532;29;20525;-84
2021/06/07 08:21:23;;;;;;;6.32;3.70;;;;;;;16.95;63.45;102112.50;4906923;29;20378;-80
2021/06/07 08:23:49;;;;;;;6.28;3.20;;;;;;;17.07;63.31;102111.13;4915158;29;20068;-80
2021/06/07 08:26:15;;;;;;;4.57;3.17;;;;;;;17.43;62.58;102142.09;4922770;29;20036;-83
2021/06/07 08:28:40;;;;;;;10.85;4.35;;;;;;;17.51;61.98;102145.25;4918768;29;20046;-82
2021/06/07 08:31:06;;;;;;;10.02;4.60;;;;;;;17.20;62.16;102117.56;4921812;29;20501;-81
2021/06/07 08:33:35;;;;;;;7.53;4.07;;;;;;;17.40;62.32;102144.88;4910660;29;20048;-80
2021/06/07 08:36:05;;;;;;;5.13;3.53;;;;;;;17.51;61.58;102129.41;4897454;29;20041;-80
2021/06/07 08:38:31;;;;;;;4.43;2.92;;;;;;;17.81;61.01;102139.53;4905895;29;20060;-84
2021/06/07 08:40:57;;;;;;;7.40;3.50;;;;;;;17.83;60.91;102132.38;4920756;29;20036;-82
2021/06/07 08:43:24;;;;;;;7.78;3.72;;;;;;;17.77;61.03;102138.81;4921102;29;20055;-83
2021/06/07 08:45:50;;;;;;;7.15;3.35;;;;;;;17.76;61.08;102138.91;4910115;29;20490;-84
2021/06/07 08:48:17;;;;;;;6.85;3.28;;;;;;;17.51;60.81;102094.25;4870133;29;20485;-83
2021/06/07 08:50:44;;;;;;;11.73;4.07;;;;;;;17.41;61.58;102110.50;4903313;29;20040;-84
2021/06/07 08:53:10;;;;;;;7.50;3.65;;;;;;;17.48;61.71;102131.34;4920641;29;20108;-83
2021/06/07 08:55:36;;;;;;;10.10;4.22;;;;;;;17.48;62.25;102139.25;4912802;29;20072;-82
2021/06/07 08:58:05;;;;;;;7.15;3.42;;;;;;;17.36;62.12;102132.75;4902682;29;20064;-83
2021/06/07 09:00:36;;;;;;;5.63;3.15;;;;;;;17.27;62.64;102141.91;4886404;29;20093;-83
2021/06/07 09:03:11;;;;;;;5.57;2.92;;;;;;;17.22;62.87;102149.16;4884866;29;20478;-84
2021/06/07 09:05:39;;;;;;;6.43;2.97;;;;;;;17.13;62.62;102130.16;4888459;29;20064;-83
2021/06/07 09:08:10;;;;;;;7.07;2.83;;;;;;;17.10;62.38;102098.66;4900252;29;20120;-83
2021/06/07 09:10:54;;;;;;;6.32;3.03;;;;;;;17.33;62.11;102131.06;4884730;29;20482;-84
2021/06/07 09:13:23;;;;;;;6.55;3.22;;;;;;;17.13;62.94;102150.44;4899739;29;20517;-82
2021/06/07 09:15:51;;;;;;;6.18;3.20;;;;;;;17.02;62.87;102118.38;4898935;29;20493;-82
2021/06/07 09:18:35;;;;;;;7.15;3.20;;;;;;;17.40;62.50;102143.09;4899702;29;20040;-83
2021/06/07 09:21:14;;;;;;;6.75;3.20;;;;;;;17.58;61.58;102138.78;4900004;29;20033;-82
2021/06/07 09:23:45;;;;;;;5.85;2.88;;;;;;;17.67;61.46;102141.94;4880900;29;20087;-83
2021/06/07 09:26:32;;;;;;;6.45;3.45;;;;;;;17.08;61.89;102082.03;4890219;29;20172;-84
2021/06/07 09:29:04;;;;;;;6.47;3.63;;;;;;;17.32;62.44;102136.44;4892188;29;20062;-85
2021/06/07 09:31:34;;;;;;;10.98;3.72;;;;;;;17.43;62.52;102150.00;4880305;29;20029;-81
2021/06/07 09:34:04;;;;;;;8.98;3.47;;;;;;;17.35;62.38;102152.16;4883954;29;20072;-82
2021/06/07 09:36:31;;;;;;;6.35;3.65;;;;;;;17.34;62.49;102139.88;4899476;29;20052;-82
2021/06/07 09:38:58;;;;;;;4.47;3.40;;;;;;;17.46;62.09;102157.81;4898674;29;20033;-82
2021/06/07 09:41:26;;;;;;;5.22;2.80;;;;;;;17.62;61.89;102154.50;4899050;29;20478;-81
2021/06/07 09:43:58;;;;;;;6.20;3.13;;;;;;;17.63;61.60;102158.84;4901415;29;20509;-81
2021/06/07 09:46:26;;;;;;;6.50;3.10;;;;;;;17.29;62.36;102153.25;4914294;29;20039;-82
2021/06/07 09:49:10;;;;;;;6.22;3.20;;;;;;;17.24;62.38;102157.88;4900708;29;20064;-82
2021/06/07 09:51:38;;;;;;;6.78;3.30;;;;;;;17.33;62.79;102169.81;4897942;29;20486;-81
2021/06/07 09:54:04;;;;;;;6.47;3.50;;;;;;;16.89;62.33;102097.75;4899001;29;20047;-81
2021/06/07 09:56:30;;;;;;;6.05;3.28;;;;;;;17.27;62.69;102177.09;4902656;29;20044;-81
2021/06/07 09:58:55;;;;;;;5.72;3.28;;;;;;;17.03;62.30;102115.66;4902363;29;20044;-81
2021/06/07 10:01:28;;;;;;;7.60;3.10;;;;;;;17.30;62.58;102170.81;4905980;29;20072;-82
2021/06/07 10:03:56;;;;;;;7.00;2.95;;;;;;;16.86;62.38;102089.97;4907281;29;20055;-81
2021/06/07 10:06:34;;;;;;;5.97;2.90;;;;;;;17.54;61.26;102171.53;4907243;29;20470;-82
2021/06/07 10:09:12;;;;;;;8.32;2.75;;;;;;;18.03;59.97;102159.72;4908926;29;20041;-81
2021/06/07 10:11:41;;;;;;;6.60;3.05;;;;;;;18.09;59.39;102164.72;4906906;29;20099;-80
2021/06/07 10:14:21;;;;;;;6.18;2.90;;;;;;;17.94;59.41;102155.66;4908206;29;20055;-83
2021/06/07 10:17:00;;;;;;;3.35;2.42;;;;;;;18.19;58.06;102154.56;4927630;29;20379;-82
2021/06/07 10:19:39;;;;;;;3.70;2.50;;;;;;;18.18;57.69;102131.72;4909414;29;20064;-80
2021/06/07 10:22:06;;;;;;;5.68;2.78;;;;;;;18.72;57.22;102152.88;4925115;29;20036;-82
2021/06/07 10:24:32;;;;;;;4.97;2.83;;;;;;;19.25;55.49;102153.78;4908164;29;20161;-81
2021/06/07 10:26:59;;;;;;;4.47;2.78;;;;;;;19.71;54.19;102152.31;4923158;29;20052;-81
2021/06/07 10:29:44;;;;;;;5.88;2.60;;;;;;;19.67;53.70;102156.91;4908678;29;20044;-81
2021/06/07 10:32:13;;;;;;;;;;;;;;;19.52;53.82;102154.13;4902418;29;20045;-79
2021/06/07 10:34:52;;;;;;;3.05;2.20;;;;;;;19.41;53.46;102150.34;4903425;29;19923;-79
2021/06/07 10:37:18;;;;;;;4.97;2.30;;;;;;;19.96;52.03;102147.41;4921920;29;20040;-78
2021/06/07 10:39:45;;;;;;;3.75;1.90;;;;;;;20.20;50.56;102152.31;4911856;29;20043;-78
2021/06/07 10:42:17;;;;;;;4.47;2.28;;;;;;;20.68;49.53;102148.72;4929610;29;20043;-79
2021/06/07 10:44:49;;;;;;;5.57;2.30;;;;;;;20.54;50.43;102149.53;4920827;29;20041;-78
2021/06/07 10:47:18;;;;;;;4.03;2.22;;;;;;;20.58;50.35;102141.31;4929458;29;20033;-79
2021/06/07 10:49:54;;;;;;;4.03;2.15;;;;;;;21.15;49.20;102136.28;4945646;29;20027;-81
2021/06/07 10:52:25;;;;;;;3.15;2.22;;;;;;;21.56;48.56;102138.22;4927703;29;20048;-81
2021/06/07 10:55:31;;;;;;;3.72;2.50;;;;;;;21.48;48.12;102104.13;4930311;29;20079;-82
2021/06/07 10:58:13;;;;;;;4.15;2.38;;;;;;;21.19;48.50;102106.81;4875067;29;20056;-82
2021/06/07 11:00:49;;;;;;;4.10;2.58;;;;;;;20.89;48.75;102098.88;4925905;29;20036;-82
2021/06/07 11:03:24;;;;;;;4.10;2.20;;;;;;;21.01;48.99;102140.63;4907928;29;20063;-82
2021/06/07 11:05:58;;;;;;;4.90;2.60;;;;;;;20.86;49.13;102131.78;4921961;29;20095;-82
2021/06/07 11:08:29;;;;;;;4.88;2.60;;;;;;;20.92;49.21;102131.41;4922950;29;20375;-82
2021/06/07 11:11:05;;;;;;;3.38;2.20;;;;;;;21.37;48.52;102120.75;4903062;29;20100;-82
2021/06/07 11:13:54;;;;;;;4.47;2.40;;;;;;;21.55;47.99;102115.25;4919296;29;20032;-83
2021/06/07 11:16:46;;;;;;;4.75;2.50;;;;;;;21.75;47.25;102112.22;4919320;29;20024;-81
2021/06/07 11:19:20;;;;;;;4.25;2.08;;;;;;;22.46;45.84;102100.63;4943446;29;20047;-81
2021/06/07 11:21:57;;;;;;;4.75;2.35;;;;;;;22.45;45.76;102109.56;4926331;29;20048;-83
2021/06/07 11:24:30;;;;;;;5.43;2.80;;;;;;;22.25;45.80;102110.88;4925505;29;20091;-83
2021/06/07 11:26:57;;;;;;;4.07;2.50;;;;;;;22.06;46.01;102107.59;4926247;29;20036;-81
2021/06/07 11:29:24;;;;;;;4.50;2.72;;;;;;;22.29;46.24;102107.91;4941793;29;20039;-82
2021/06/07 11:31:56;;;;;;;4.82;2.80;;;;;;;22.00;46.26;102104.50;4928251;29;20068;-79